Time;durP1;ratioP1;P1;durP2;ratioP2;P2;SDS_P1;SDS_P2;PMS_P1;PMS_P2;Temp;Humidity;BMP_temperature;BMP_pressure;BME280_temperature;BME280_humidity;BME280_pressure;Samples;Min_cycle;Max_cycle;Signal;HPM_P1;HPM_P2
2021/06/17 00:00:10;;;;;;;7.13;5.75;;;;;;;;;;5053275;28;20044;-74
2021/06/17 00:02:36;;;;;;;8.57;6.25;;;;;;;;;;5052905;28;20076;-73
2021/06/17 00:05:03;;;;;;;9.93;6.28;;;;;;;;;;5052185;28;20040;-74
2021/06/17 00:07:29;;;;;;;14.05;6.63;;;;;;;;;;5053444;28;20033;-74
2021/06/17 00:09:54;;;;;;;9.50;5.97;;;;;;;;;;5052477;28;20067;-73
2021/06/17 00:12:20;;;;;;;7.05;6.30;;;;;;;;;;5046875;28;20235;-74
2021/06/17 00:14:45;;;;;;;9.68;6.80;;;;;;;;;;5033881;28;20447;-73
2021/06/17 00:17:11;;;;;;;10.27;6.25;;;;;;;;;;5032555;28;20037;-73
2021/06/17 00:19:36;;;;;;;11.00;6.80;;;;;;;;;;5033280;28;20128;-73
2021/06/17 00:22:03;;;;;;;9.77;5.90;;;;;;;;;;5032001;28;20125;-74
2021/06/17 00:24:28;;;;;;;12.82;7.47;;;;;;;;;;5044828;28;20509;-74
2021/06/17 00:26:54;;;;;;;8.32;7.40;;;;;;;;;;5053095;28;20029;-74
2021/06/17 00:29:19;;;;;;;8.95;6.45;;;;;;;;;;5053052;28;20546;-74
2021/06/17 00:31:45;;;;;;;12.02;6.95;;;;;;;;;;5052699;28;20037;-74
2021/06/17 00:34:11;;;;;;;10.15;5.55;;;;;;;;;;5053003;28;20063;-73
2021/06/17 00:36:37;;;;;;;8.45;6.75;;;;;;;;;;5052872;28;20055;-74
2021/06/17 00:39:09;;;;;;;8.18;6.65;;;;;;;;;;5052860;28;20614;-74
2021/06/17 00:41:38;;;;;;;8.93;6.43;;;;;;;;;;5052234;28;20056;-74
2021/06/17 00:44:04;;;;;;;11.07;6.88;;;;;;;;;;5040803;28;20122;-74
2021/06/17 00:46:30;;;;;;;11.70;7.22;;;;;;;;;;5052299;28;20095;-73
2021/06/17 00:48:55;;;;;;;13.88;7.28;;;;;;;;;;5052950;28;20037;-74
2021/06/17 00:51:20;;;;;;;16.92;6.43;;;;;;;;;;5052921;28;20047;-73
2021/06/17 00:53:46;;;;;;;13.63;6.60;;;;;;;;;;5052754;28;20033;-74
2021/06/17 00:56:12;;;;;;;10.93;6.90;;;;;;;;;;5052873;28;20112;-73
2021/06/17 00:58:37;;;;;;;11.80;6.70;;;;;;;;;;5052406;28;20091;-73
2021/06/17 01:01:03;;;;;;;6.97;6.25;;;;;;;;;;5052654;28;20082;-73
2021/06/17 01:03:28;;;;;;;10.25;6.45;;;;;;;;;;5052480;28;20546;-74
2021/06/17 01:05:54;;;;;;;12.48;6.90;;;;;;;;;;5052489;28;20033;-74
2021/06/17 01:08:40;;;;;;;7.90;5.90;;;;;;;;;;5052684;28;20048;-74
2021/06/17 01:11:17;;;;;;;6.88;6.18;;;;;;;;;;5055581;28;20036;-73
2021/06/17 01:13:52;;;;;;;12.15;6.57;;;;;;;;;;5050112;28;20079;-73
2021/06/17 01:16:43;;;;;;;11.40;6.50;;;;;;;;;;5035340;28;20038;-74
2021/06/17 01:19:32;;;;;;;11.23;7.68;;;;;;;;;;5036634;28;20351;-74
2021/06/17 01:22:29;;;;;;;10.38;6.57;;;;;;;;;;5035859;28;20045;-73
2021/06/17 01:25:10;;;;;;;9.70;6.75;;;;;;;;;;5036264;28;20048;-74
2021/06/17 01:28:06;;;;;;;13.32;7.20;;;;;;;;;;5036215;28;20446;-74
2021/06/17 01:30:36;;;;;;;8.75;6.53;;;;;;;;;;5036350;28;20030;-73
2021/06/17 01:33:04;;;;;;;11.63;6.90;;;;;;;;;;5036218;28;20067;-74
2021/06/17 01:35:35;;;;;;;9.70;6.90;;;;;;;;;;5036315;28;20033;-74
2021/06/17 01:38:04;;;;;;;15.10;6.75;;;;;;;;;;5035993;28;20045;-74
2021/06/17 01:40:31;;;;;;;13.05;6.57;;;;;;;;;;5049186;28;20064;-73
2021/06/17 01:42:58;;;;;;;10.57;7.20;;;;;;;;;;5053283;28;20119;-73
2021/06/17 01:45:25;;;;;;;7.45;6.63;;;;;;;;;;5044551;28;20117;-74
2021/06/17 01:47:52;;;;;;;9.68;7.05;;;;;;;;;;5035782;28;20044;-74
2021/06/17 01:50:19;;;;;;;10.07;6.25;;;;;;;;;;5036147;28;20582;-74
2021/06/17 01:52:46;;;;;;;8.45;6.40;;;;;;;;;;5035910;28;20475;-73
2021/06/17 01:55:13;;;;;;;10.57;7.38;;;;;;;;;;5033648;28;20037;-73
2021/06/17 01:57:39;;;;;;;8.73;6.80;;;;;;;;;;5035877;28;20395;-73
2021/06/17 02:00:07;;;;;;;9.52;7.43;;;;;;;;;;5035935;28;20055;-74
2021/06/17 02:02:34;;;;;;;11.57;7.72;;;;;;;;;;5035502;28;20506;-74
2021/06/17 02:05:00;;;;;;;23.35;8.68;;;;;;;;;;5035696;28;20163;-73
2021/06/17 02:07:26;;;;;;;12.15;8.48;;;;;;;;;;5034060;28;20475;-74
2021/06/17 02:09:53;;;;;;;10.50;7.75;;;;;;;;;;5043637;28;20064;-73
2021/06/17 02:12:19;;;;;;;7.55;6.65;;;;;;;;;;5055784;28;20037;-73
2021/06/17 02:14:46;;;;;;;15.07;6.70;;;;;;;;;;5047828;28;20029;-73
2021/06/17 02:17:14;;;;;;;6.95;5.88;;;;;;;;;;5043977;28;20037;-74
2021/06/17 02:19:40;;;;;;;13.88;7.30;;;;;;;;;;5046515;28;20103;-73
2021/06/17 02:22:07;;;;;;;7.75;6.93;;;;;;;;;;5055020;28;20124;-74
2021/06/17 02:24:36;;;;;;;10.73;7.32;;;;;;;;;;5055266;28;20043;-73
2021/06/17 02:27:12;;;;;;;7.35;5.82;;;;;;;;;;5055368;28;20040;-73
2021/06/17 02:29:39;;;;;;;;;;;;;;;;;;5055806;28;20479;-73
2021/06/17 02:32:07;;;;;;;10.73;4.93;;;;;;;;;;5055153;28;19920;-73
2021/06/17 02:34:33;;;;;;;10.93;6.72;;;;;;;;;;5054984;28;20116;-73
2021/06/17 02:37:00;;;;;;;10.13;7.15;;;;;;;;;;5055036;28;20398;-73
2021/06/17 02:39:28;;;;;;;9.88;6.30;;;;;;;;;;5053907;28;20417;-73
2021/06/17 02:41:56;;;;;;;8.85;5.95;;;;;;;;;;5053752;28;20179;-73
2021/06/17 02:44:24;;;;;;;8.55;6.60;;;;;;;;;;5049574;28;20045;-73
2021/06/17 02:46:51;;;;;;;10.05;7.20;;;;;;;;;;5053907;28;20029;-73
2021/06/17 02:49:16;;;;;;;16.35;7.78;;;;;;;;;;5054881;28;20088;-75
2021/06/17 02:51:42;;;;;;;10.25;6.82;;;;;;;;;;5054934;28;20036;-73
2021/06/17 02:54:07;;;;;;;14.70;6.10;;;;;;;;;;5054735;28;20087;-74
2021/06/17 02:56:35;;;;;;;7.35;6.20;;;;;;;;;;5054760;28;20040;-74
2021/06/17 02:59:32;;;;;;;8.27;6.20;;;;;;;;;;5055088;28;20040;-74
2021/06/17 03:02:01;;;;;;;;;;;;;;;;;;5052647;28;20110;-72
2021/06/17 03:04:34;;;;;;;7.50;6.30;;;;;;;;;;5053097;28;20382;-74
2021/06/17 03:07:01;;;;;;;13.88;7.93;;;;;;;;;;5054439;28;20040;-73
2021/06/17 03:09:35;;;;;;;19.42;7.85;;;;;;;;;;5053968;28;20055;-73
2021/06/17 03:12:01;;;;;;;10.38;7.03;;;;;;;;;;5054285;28;20036;-73
2021/06/17 03:14:32;;;;;;;10.45;6.20;;;;;;;;;;5050651;28;20459;-73
2021/06/17 03:16:58;;;;;;;10.80;6.20;;;;;;;;;;5034907;28;20060;-73
2021/06/17 03:19:27;;;;;;;8.15;6.28;;;;;;;;;;5034438;28;20029;-73
2021/06/17 03:21:59;;;;;;;13.52;7.30;;;;;;;;;;5033076;28;20437;-73
2021/06/17 03:24:28;;;;;;;17.50;7.00;;;;;;;;;;5034124;28;20471;-73
2021/06/17 03:26:56;;;;;;;10.48;7.88;;;;;;;;;;5034030;28;20060;-73
2021/06/17 03:29:25;;;;;;;12.48;7.80;;;;;;;;;;5034030;28;20537;-73
2021/06/17 03:31:54;;;;;;;16.17;7.95;;;;;;;;;;5047404;28;20047;-73
2021/06/17 03:34:19;;;;;;;14.05;8.38;;;;;;;;;;5053781;28;20032;-73
2021/06/17 03:36:45;;;;;;;14.50;7.13;;;;;;;;;;5053890;28;20398;-73
2021/06/17 03:39:11;;;;;;;16.83;9.10;;;;;;;;;;5053788;28;20060;-73
2021/06/17 03:41:37;;;;;;;25.90;10.02;;;;;;;;;;5040180;28;20083;-73
2021/06/17 03:44:04;;;;;;;10.25;5.65;;;;;;;;;;5033424;28;20053;-73
2021/06/17 03:46:31;;;;;;;10.38;5.65;;;;;;;;;;5033760;28;20482;-72
2021/06/17 03:48:57;;;;;;;12.32;6.70;;;;;;;;;;5032397;28;20056;-73
2021/06/17 03:51:25;;;;;;;14.57;7.07;;;;;;;;;;5033877;28;20065;-73
2021/06/17 03:53:51;;;;;;;13.02;7.38;;;;;;;;;;5033282;28;20033;-73
2021/06/17 03:56:17;;;;;;;14.38;8.45;;;;;;;;;;5033852;28;20115;-73
2021/06/17 03:58:44;;;;;;;18.50;7.60;;;;;;;;;;5033295;28;20059;-73
2021/06/17 04:01:11;;;;;;;24.88;7.63;;;;;;;;;;5032214;28;20502;-73
2021/06/17 04:03:39;;;;;;;15.10;8.45;;;;;;;;;;5038694;28;20037;-72
2021/06/17 04:06:10;;;;;;;19.48;9.68;;;;;;;;;;5031750;28;20087;-72
2021/06/17 04:08:42;;;;;;;14.75;9.68;;;;;;;;;;5033333;28;20037;-72
2021/06/17 04:11:09;;;;;;;18.70;8.32;;;;;;;;;;5050774;28;20044;-72
2021/06/17 04:13:40;;;;;;;15.65;7.95;;;;;;;;;;5053372;28;20033;-74
2021/06/17 04:16:09;;;;;;;21.55;8.18;;;;;;;;;;5051883;28;20141;-73
2021/06/17 04:18:35;;;;;;;20.58;8.13;;;;;;;;;;5052714;28;20037;-72
2021/06/17 04:21:02;;;;;;;24.17;9.57;;;;;;;;;;5052695;28;20047;-73
2021/06/17 04:23:29;;;;;;;18.15;8.77;;;;;;;;;;5053098;28;20033;-73
2021/06/17 04:25:57;;;;;;;19.98;8.20;;;;;;;;;;5051904;28;20041;-73
2021/06/17 04:28:26;;;;;;;13.05;8.13;;;;;;;;;;5052602;28;20041;-73
2021/06/17 04:30:54;;;;;;;33.28;10.93;;;;;;;;;;5053118;28;20123;-73
2021/06/17 04:33:22;;;;;;;18.35;9.38;;;;;;;;;;5052681;28;20491;-73
2021/06/17 04:35:49;;;;;;;15.52;8.35;;;;;;;;;;5052903;28;20044;-73
2021/06/17 04:38:18;;;;;;;15.85;9.02;;;;;;;;;;5052916;28;20056;-75
2021/06/17 04:40:46;;;;;;;20.80;9.07;;;;;;;;;;5053115;28;20091;-74
2021/06/17 04:43:13;;;;;;;16.58;9.63;;;;;;;;;;5052966;28;20480;-74
2021/06/17 04:45:41;;;;;;;19.45;8.68;;;;;;;;;;5051445;28;20052;-75
2021/06/17 04:48:09;;;;;;;10.43;8.23;;;;;;;;;;5052753;28;20035;-74
2021/06/17 04:50:35;;;;;;;14.50;9.18;;;;;;;;;;5053154;28;20130;-75
2021/06/17 04:53:11;;;;;;;12.27;10.23;;;;;;;;;;5053090;28;20103;-75
2021/06/17 04:55:55;;;;;;;18.77;9.77;;;;;;;;;;5052976;28;20047;-75
2021/06/17 04:58:22;;;;;;;25.15;9.88;;;;;;;;;;5052796;28;20036;-76
2021/06/17 05:00:48;;;;;;;14.73;9.57;;;;;;;;;;5052948;28;20033;-75
2021/06/17 05:03:14;;;;;;;12.07;9.60;;;;;;;;;;5052532;28;20040;-75
2021/06/17 05:05:40;;;;;;;16.73;10.13;;;;;;;;;;5052810;28;20475;-74
2021/06/17 05:10:52;;;;;;;17.23;10.50;;;;;;;;;;5052556;28;20037;-75
2021/06/17 05:13:29;;;;;;;24.33;11.15;;;;;;;;;;5052853;28;20040;-74
2021/06/17 05:15:56;;;;;;;13.80;8.63;;;;;;;;;;5051339;28;20044;-75
2021/06/17 05:18:22;;;;;;;20.83;10.80;;;;;;;;;;5052533;28;20558;-75
2021/06/17 05:20:49;;;;;;;24.02;11.98;;;;;;;;;;5051614;28;20178;-75
2021/06/17 05:23:18;;;;;;;20.42;10.68;;;;;;;;;;5052540;28;20033;-75
2021/06/17 05:25:44;;;;;;;28.27;13.25;;;;;;;;;;5051386;28;20032;-75
2021/06/17 05:28:14;;;;;;;16.15;9.98;;;;;;;;;;5052539;28;20190;-75
2021/06/17 05:30:43;;;;;;;16.65;10.48;;;;;;;;;;5052760;28;20123;-75
2021/06/17 05:33:09;;;;;;;22.70;11.40;;;;;;;;;;5052507;28;20112;-75
2021/06/17 05:35:35;;;;;;;14.13;10.05;;;;;;;;;;5052683;28;20115;-76
2021/06/17 05:38:01;;;;;;;13.65;9.82;;;;;;;;;;5051121;28;20090;-76
2021/06/17 05:40:26;;;;;;;15.38;10.60;;;;;;;;;;5052288;28;20360;-76
2021/06/17 05:42:52;;;;;;;13.13;9.63;;;;;;;;;;5051262;28;20052;-75
2021/06/17 05:45:17;;;;;;;14.93;10.13;;;;;;;;;;5051234;28;20052;-75
2021/06/17 05:47:43;;;;;;;14.45;10.52;;;;;;;;;;5050966;28;20835;-76
2021/06/17 05:50:09;;;;;;;15.07;10.05;;;;;;;;;;5051334;28;20029;-76
2021/06/17 05:52:35;;;;;;;13.30;9.48;;;;;;;;;;5052374;28;20029;-74
2021/06/17 05:55:00;;;;;;;16.92;9.82;;;;;;;;;;5052479;28;20041;-75
2021/06/17 05:57:26;;;;;;;21.27;11.75;;;;;;;;;;5037467;28;20033;-76
2021/06/17 05:59:51;;;;;;;18.83;10.63;;;;;;;;;;5056181;28;20305;-76
2021/06/17 06:02:23;;;;;;;13.18;9.35;;;;;;;;;;5055728;28;20037;-76
2021/06/17 06:04:48;;;;;;;28.70;11.05;;;;;;;;;;5053658;28;20438;-77
2021/06/17 06:07:14;;;;;;;20.45;11.57;;;;;;;;;;5055690;28;20033;-76
2021/06/17 06:09:39;;;;;;;23.45;12.80;;;;;;;;;;5055644;28;20424;-76
2021/06/17 06:12:06;;;;;;;21.13;10.90;;;;;;;;;;5055661;28;20039;-76
2021/06/17 06:14:32;;;;;;;15.93;10.10;;;;;;;;;;5054505;28;20059;-76
2021/06/17 06:16:58;;;;;;;14.85;8.85;;;;;;;;;;5055512;28;20112;-77
2021/06/17 06:19:23;;;;;;;12.63;7.85;;;;;;;;;;5054983;28;20041;-77
2021/06/17 06:21:48;;;;;;;12.52;7.50;;;;;;;;;;5055408;28;20039;-77
2021/06/17 06:24:14;;;;;;;16.52;7.75;;;;;;;;;;5055551;28;20082;-77
2021/06/17 06:26:40;;;;;;;12.98;7.25;;;;;;;;;;5055461;28;20107;-77
2021/06/17 06:29:06;;;;;;;15.95;7.05;;;;;;;;;;5055607;28;20025;-76
2021/06/17 06:31:31;;;;;;;14.45;7.07;;;;;;;;;;5055618;28;20041;-76
2021/06/17 06:33:57;;;;;;;13.55;7.38;;;;;;;;;;5055136;28;20063;-77
2021/06/17 06:36:22;;;;;;;12.90;6.00;;;;;;;;;;5054789;28;20029;-76
2021/06/17 06:38:47;;;;;;;13.70;6.18;;;;;;;;;;5055261;28;20044;-76
2021/06/17 06:41:13;;;;;;;11.55;5.45;;;;;;;;;;5055190;28;20033;-76
2021/06/17 06:43:38;;;;;;;17.60;5.50;;;;;;;;;;5055177;28;20112;-76
2021/06/17 06:46:03;;;;;;;8.70;5.13;;;;;;;;;;5053677;28;20108;-76
2021/06/17 06:48:30;;;;;;;14.07;6.47;;;;;;;;;;5054705;28;20071;-76
2021/06/17 06:50:56;;;;;;;18.13;6.32;;;;;;;;;;5055013;28;20541;-77
2021/06/17 06:53:21;;;;;;;18.33;6.85;;;;;;;;;;5055152;28;20025;-77
2021/06/17 06:55:47;;;;;;;13.85;6.10;;;;;;;;;;5055063;28;20037;-76
2021/06/17 06:58:13;;;;;;;13.18;5.32;;;;;;;;;;5054935;28;20045;-76
2021/06/17 07:00:42;;;;;;;12.50;6.30;;;;;;;;;;5053759;28;20044;-77
2021/06/17 07:03:08;;;;;;;13.30;5.80;;;;;;;;;;5054372;28;20076;-77
2021/06/17 07:05:33;;;;;;;8.25;4.53;;;;;;;;;;5054516;28;20071;-77
2021/06/17 07:08:02;;;;;;;16.17;5.57;;;;;;;;;;5054739;28;20116;-77
2021/06/17 07:10:28;;;;;;;15.27;4.95;;;;;;;;;;5054706;28;20037;-76
2021/06/17 07:12:53;;;;;;;11.70;4.95;;;;;;;;;;5054914;28;20075;-76
2021/06/17 07:15:18;;;;;;;9.35;4.47;;;;;;;;;;5054608;28;20037;-76
2021/06/17 07:17:44;;;;;;;12.75;4.75;;;;;;;;;;5053889;28;20090;-76
2021/06/17 07:20:12;;;;;;;13.93;5.10;;;;;;;;;;5053062;28;20041;-75
2021/06/17 07:22:38;;;;;;;20.30;4.97;;;;;;;;;;5054390;28;20033;-75
2021/06/17 07:25:04;;;;;;;9.07;4.65;;;;;;;;;;5054299;28;20032;-75
2021/06/17 07:27:29;;;;;;;8.27;4.15;;;;;;;;;;5054491;28;20063;-76
2021/06/17 07:29:54;;;;;;;13.63;4.57;;;;;;;;;;5054371;28;20037;-75
2021/06/17 07:32:21;;;;;;;8.63;3.88;;;;;;;;;;5052681;28;20039;-75
2021/06/17 07:34:46;;;;;;;12.60;4.63;;;;;;;;;;5053807;28;20095;-75
2021/06/17 07:37:13;;;;;;;9.45;4.85;;;;;;;;;;5054148;28;20471;-75
2021/06/17 07:39:38;;;;;;;20.77;5.35;;;;;;;;;;5054105;28;20086;-75
2021/06/17 07:42:04;;;;;;;11.90;4.75;;;;;;;;;;5054093;28;20032;-75
2021/06/17 07:44:30;;;;;;;10.82;4.47;;;;;;;;;;5053698;28;20048;-75
2021/06/17 07:46:55;;;;;;;10.88;4.15;;;;;;;;;;5053824;28;20097;-75
2021/06/17 07:49:20;;;;;;;10.95;4.53;;;;;;;;;;5053647;28;20106;-75
2021/06/17 07:51:46;;;;;;;9.50;4.15;;;;;;;;;;5053927;28;20114;-75
2021/06/17 07:54:11;;;;;;;8.50;3.97;;;;;;;;;;5053789;28;20029;-75
2021/06/17 07:56:36;;;;;;;8.02;3.90;;;;;;;;;;5053804;28;20067;-75
2021/06/17 07:59:02;;;;;;;10.02;4.18;;;;;;;;;;5053788;28;20039;-75
2021/06/17 08:01:28;;;;;;;12.20;4.45;;;;;;;;;;5053705;28;20083;-75
2021/06/17 08:03:54;;;;;;;8.00;3.50;;;;;;;;;;5053097;28;20099;-75
2021/06/17 08:06:20;;;;;;;6.70;3.70;;;;;;;;;;5053730;28;20048;-76
2021/06/17 08:08:45;;;;;;;8.55;3.97;;;;;;;;;;5053522;28;20079;-75
2021/06/17 08:11:12;;;;;;;12.00;3.97;;;;;;;;;;5053489;28;20566;-75
2021/06/17 08:13:37;;;;;;;6.20;3.72;;;;;;;;;;5053630;28;20078;-75
2021/06/17 08:16:03;;;;;;;11.35;3.50;;;;;;;;;;5053274;28;20426;-75
2021/06/17 08:18:29;;;;;;;8.93;4.00;;;;;;;;;;5052609;28;20052;-75
2021/06/17 08:20:55;;;;;;;9.32;3.45;;;;;;;;;;5053438;28;20033;-75
2021/06/17 08:23:21;;;;;;;10.93;3.88;;;;;;;;;;5052100;28;20045;-75
2021/06/17 08:25:50;;;;;;;13.10;3.80;;;;;;;;;;5053349;28;20079;-75
2021/06/17 08:28:16;;;;;;;11.25;3.65;;;;;;;;;;5035509;28;20036;-75
2021/06/17 08:30:41;;;;;;;8.15;3.40;;;;;;;;;;5053253;28;20044;-75
2021/06/17 08:33:07;;;;;;;7.30;3.42;;;;;;;;;;5052925;28;20029;-75
2021/06/17 08:35:32;;;;;;;6.90;3.80;;;;;;;;;;5051834;28;20040;-75
2021/06/17 08:37:58;;;;;;;9.48;3.70;;;;;;;;;;5053196;28;20047;-75
2021/06/17 08:40:26;;;;;;;6.95;3.85;;;;;;;;;;5053032;28;20044;-75
2021/06/17 08:42:51;;;;;;;4.68;3.10;;;;;;;;;;5053075;28;20041;-75
2021/06/17 08:45:17;;;;;;;4.82;2.97;;;;;;;;;;5052738;28;20052;-75
2021/06/17 08:47:43;;;;;;;5.10;3.10;;;;;;;;;;5052999;28;20041;-75
2021/06/17 08:50:11;;;;;;;9.43;3.20;;;;;;;;;;5052993;28;20029;-75
2021/06/17 08:52:40;;;;;;;8.00;3.58;;;;;;;;;;5052841;28;20044;-75
2021/06/17 08:55:15;;;;;;;7.45;3.00;;;;;;;;;;5053149;28;20036;-75
2021/06/17 08:57:41;;;;;;;8.60;3.63;;;;;;;;;;5052796;28;20426;-75
2021/06/17 09:00:16;;;;;;;8.55;2.85;;;;;;;;;;5052974;28;20024;-75
2021/06/17 09:02:42;;;;;;;5.95;2.80;;;;;;;;;;5052994;28;20510;-75
2021/06/17 09:05:14;;;;;;;7.97;3.08;;;;;;;;;;5052721;28;20067;-75
2021/06/17 09:07:42;;;;;;;6.80;3.10;;;;;;;;;;5052883;28;20044;-75
2021/06/17 09:10:09;;;;;;;4.57;2.75;;;;;;;;;;5053001;28;20064;-75
2021/06/17 09:12:43;;;;;;;4.75;2.63;;;;;;;;;;5052305;28;20087;-75
2021/06/17 09:15:09;;;;;;;2.90;2.22;;;;;;;;;;5053001;28;20430;-75
2021/06/17 09:17:35;;;;;;;7.45;2.70;;;;;;;;;;5052576;28;20494;-75
2021/06/17 09:20:00;;;;;;;8.20;3.00;;;;;;;;;;5051411;28;20033;-75
2021/06/17 09:22:27;;;;;;;6.45;2.60;;;;;;;;;;5052797;28;20051;-75
2021/06/17 09:24:54;;;;;;;7.65;2.95;;;;;;;;;;5051266;28;20041;-75
2021/06/17 09:27:22;;;;;;;3.95;2.50;;;;;;;;;;5052351;28;20072;-75
2021/06/17 09:29:49;;;;;;;6.78;2.53;;;;;;;;;;5052831;28;20033;-75
2021/06/17 09:32:27;;;;;;;12.40;2.72;;;;;;;;;;5055442;28;20040;-75
2021/06/17 09:34:52;;;;;;;5.72;2.60;;;;;;;;;;5056333;28;20047;-75
2021/06/17 09:37:37;;;;;;;6.18;2.60;;;;;;;;;;5056524;28;20033;-75
2021/06/17 09:40:29;;;;;;;9.65;2.88;;;;;;;;;;5055234;28;20036;-75
2021/06/17 09:43:14;;;;;;;4.68;2.40;;;;;;;;;;5056377;28;20485;-75
2021/06/17 09:45:50;;;;;;;4.40;2.23;;;;;;;;;;5056146;28;20053;-75
2021/06/17 09:48:30;;;;;;;7.50;2.90;;;;;;;;;;5056020;28;20301;-75
2021/06/17 09:50:56;;;;;;;13.85;3.25;;;;;;;;;;5056465;28;20455;-75
2021/06/17 09:53:26;;;;;;;5.55;2.90;;;;;;;;;;5056279;28;20045;-75
2021/06/17 09:55:52;;;;;;;4.65;2.28;;;;;;;;;;5056138;28;20151;-75
2021/06/17 09:58:38;;;;;;;6.35;2.45;;;;;;;;;;5055803;28;20112;-76
2021/06/17 10:01:05;;;;;;;6.78;2.88;;;;;;;;;;5056138;28;20029;-76
2021/06/17 10:03:30;;;;;;;6.80;2.42;;;;;;;;;;5055868;28;20041;-76
2021/06/17 10:05:56;;;;;;;4.85;2.33;;;;;;;;;;5055805;28;20041;-75
2021/06/17 10:08:22;;;;;;;7.90;2.70;;;;;;;;;;5055872;28;20041;-75
2021/06/17 10:10:48;;;;;;;7.88;2.15;;;;;;;;;;5055650;28;20035;-75
2021/06/17 10:13:15;;;;;;;5.70;2.33;;;;;;;;;;5055797;28;20475;-75
2021/06/17 10:15:41;;;;;;;5.18;2.72;;;;;;;;;;5055701;28;20033;-75
2021/06/17 10:18:07;;;;;;;5.03;2.33;;;;;;;;;;5055745;28;20499;-75
2021/06/17 10:20:33;;;;;;;6.00;2.33;;;;;;;;;;5055479;28;20079;-75
2021/06/17 10:22:58;;;;;;;5.18;2.33;;;;;;;;;;5055557;28;20040;-75
2021/06/17 10:25:27;;;;;;;4.00;2.00;;;;;;;;;;5055353;28;20028;-75
2021/06/17 10:27:57;;;;;;;5.65;2.30;;;;;;;;;;5054248;28;20499;-75
2021/06/17 10:30:47;;;;;;;4.78;2.67;;;;;;;;;;5055312;28;20036;-75
2021/06/17 10:33:31;;;;;;;10.50;2.47;;;;;;;;;;5055518;28;20033;-75
2021/06/17 10:36:22;;;;;;;3.72;2.33;;;;;;;;;;5053893;28;20037;-75
2021/06/17 10:39:12;;;;;;;5.82;2.45;;;;;;;;;;5055137;28;20044;-75
2021/06/17 10:41:46;;;;;;;9.60;2.45;;;;;;;;;;5054853;28;20037;-75
2021/06/17 10:44:41;;;;;;;5.22;2.40;;;;;;;;;;5054839;28;20046;-76
2021/06/17 10:47:07;;;;;;;7.97;2.75;;;;;;;;;;5055261;28;20037;-75
2021/06/17 10:49:47;;;;;;;5.45;2.20;;;;;;;;;;5055144;28;20039;-75
2021/06/17 10:52:29;;;;;;;4.30;2.15;;;;;;;;;;5054956;28;20062;-75
2021/06/17 10:55:01;;;;;;;4.38;2.20;;;;;;;;;;5054969;28;20171;-75
2021/06/17 10:57:49;;;;;;;5.00;2.13;;;;;;;;;;5053931;28;20383;-75
2021/06/17 11:00:28;;;;;;;9.23;2.28;;;;;;;;;;5054993;28;20036;-75
2021/06/17 11:03:17;;;;;;;5.38;2.30;;;;;;;;;;5054582;28;20032;-75
2021/06/17 11:05:47;;;;;;;5.22;2.00;;;;;;;;;;5054447;28;20043;-75
2021/06/17 11:08:19;;;;;;;8.23;2.40;;;;;;;;;;5054852;28;20136;-75
2021/06/17 11:11:06;;;;;;;4.82;2.15;;;;;;;;;;5053530;28;20029;-75
2021/06/17 11:13:40;;;;;;;3.63;2.15;;;;;;;;;;5054331;28;20043;-75
2021/06/17 11:16:11;;;;;;;6.15;1.92;;;;;;;;;;5053469;28;20463;-76
2021/06/17 11:18:40;;;;;;;4.03;2.00;;;;;;;;;;5053539;28;20041;-75
2021/06/17 11:21:27;;;;;;;4.40;2.00;;;;;;;;;;5054619;28;20035;-75
2021/06/17 11:23:53;;;;;;;7.45;2.28;;;;;;;;;;5053728;28;20155;-76
2021/06/17 11:26:46;;;;;;;3.75;1.80;;;;;;;;;;5054311;28;20041;-76
2021/06/17 11:29:16;;;;;;;7.03;2.45;;;;;;;;;;5053198;28;20041;-75
2021/06/17 11:31:43;;;;;;;7.38;2.25;;;;;;;;;;5054244;28;20043;-76
2021/06/17 11:34:15;;;;;;;3.63;1.80;;;;;;;;;;5053863;28;20487;-77
2021/06/17 11:36:54;;;;;;;3.80;2.03;;;;;;;;;;5054216;28;20037;-75
2021/06/17 11:39:27;;;;;;;3.38;1.95;;;;;;;;;;5054205;28;20051;-75
2021/06/17 11:41:54;;;;;;;6.55;3.35;;;;;;;;;;5053536;28;20128;-74
2021/06/17 11:44:23;;;;;;;8.07;2.45;;;;;;;;;;5053427;28;20048;-76
2021/06/17 11:46:51;;;;;;;7.45;2.40;;;;;;;;;;5052210;28;20131;-75
2021/06/17 11:49:18;;;;;;;8.52;2.10;;;;;;;;;;5053660;28;20040;-75
2021/06/17 11:51:51;;;;;;;11.00;2.17;;;;;;;;;;5054078;28;20037;-75
2021/06/17 11:54:21;;;;;;;4.43;2.30;;;;;;;;;;5051954;28;20033;-76
2021/06/17 11:56:58;;;;;;;5.57;1.90;;;;;;;;;;5053170;28;20098;-75
2021/06/17 11:59:32;;;;;;;8.15;2.25;;;;;;;;;;5053821;28;20032;-76
2021/06/17 12:02:25;;;;;;;4.57;2.25;;;;;;;;;;5053636;28;20495;-76
2021/06/17 12:04:59;;;;;;;6.78;2.00;;;;;;;;;;5053067;28;20045;-75
2021/06/17 12:07:28;;;;;;;3.92;2.05;;;;;;;;;;5052331;28;20033;-75
2021/06/17 12:10:17;;;;;;;6.05;3.10;;;;;;;;;;5042907;28;20044;-75
2021/06/17 12:12:52;;;;;;;2.95;2.15;;;;;;;;;;5033820;28;20041;-76
2021/06/17 12:15:26;;;;;;;4.30;2.33;;;;;;;;;;5033656;28;20048;-76
2021/06/17 12:17:58;;;;;;;5.72;2.38;;;;;;;;;;5033258;28;20048;-75
2021/06/17 12:20:31;;;;;;;3.78;2.45;;;;;;;;;;5033027;28;20029;-75
2021/06/17 12:22:56;;;;;;;7.40;2.15;;;;;;;;;;5033464;28;20037;-76
2021/06/17 12:25:24;;;;;;;5.07;2.58;;;;;;;;;;5033478;28;20041;-75
2021/06/17 12:27:51;;;;;;;4.93;2.45;;;;;;;;;;5033412;28;20017;-76
2021/06/17 12:30:30;;;;;;;10.63;2.30;;;;;;;;;;5033522;28;20065;-76
2021/06/17 12:33:03;;;;;;;6.15;2.30;;;;;;;;;;5033351;28;20112;-76
2021/06/17 12:35:42;;;;;;;2.70;2.15;;;;;;;;;;5031883;28;20041;-76
2021/06/17 12:38:09;;;;;;;4.82;2.25;;;;;;;;;;5033431;28;20072;-74
2021/06/17 12:40:41;;;;;;;5.15;2.35;;;;;;;;;;5047031;28;20051;-73
2021/06/17 12:43:10;;;;;;;4.97;2.47;;;;;;;;;;5053051;28;20415;-74
2021/06/17 12:45:36;;;;;;;5.78;2.35;;;;;;;;;;5051652;28;20045;-73
2021/06/17 12:48:14;;;;;;;4.75;2.30;;;;;;;;;;5053051;28;20039;-74
2021/06/17 12:53:24;;;;;;;4.63;2.40;;;;;;;;;;5052861;28;20033;-72
2021/06/17 12:55:56;;;;;;;7.03;2.65;;;;;;;;;;5053048;28;20040;-73
2021/06/17 12:58:23;;;;;;;17.63;2.40;;;;;;;;;;5052954;28;20029;-73
2021/06/17 13:00:58;;;;;;;3.83;2.10;;;;;;;;;;5053010;28;20048;-73
2021/06/17 13:03:28;;;;;;;5.82;2.25;;;;;;;;;;5051803;28;20041;-72
2021/06/17 13:05:55;;;;;;;2.80;1.85;;;;;;;;;;5055524;28;20086;-72
2021/06/17 13:08:22;;;;;;;4.85;2.10;;;;;;;;;;5057097;28;20029;-73
2021/06/17 13:10:52;;;;;;;10.98;2.20;;;;;;;;;;5055529;28;20047;-72
2021/06/17 13:13:28;;;;;;;6.18;2.17;;;;;;;;;;5057086;28;20029;-73
2021/06/17 13:15:56;;;;;;;4.22;2.00;;;;;;;;;;5056820;28;20048;-73
2021/06/17 13:18:36;;;;;;;8.65;2.30;;;;;;;;;;5056715;28;20048;-72
2021/06/17 13:21:12;;;;;;;6.90;2.38;;;;;;;;;;5056599;28;20399;-73
2021/06/17 13:23:39;;;;;;;6.55;2.00;;;;;;;;;;5056535;28;20120;-73
2021/06/17 13:26:09;;;;;;;3.92;2.00;;;;;;;;;;5056590;28;20025;-72
2021/06/17 13:28:41;;;;;;;4.13;2.40;;;;;;;;;;5056620;28;20099;-73
2021/06/17 13:31:19;;;;;;;5.57;2.25;;;;;;;;;;5056484;28;20044;-73
2021/06/17 13:33:45;;;;;;;5.57;2.10;;;;;;;;;;5056566;28;20029;-73
2021/06/17 13:36:13;;;;;;;3.47;1.95;;;;;;;;;;5055000;28;20048;-73
2021/06/17 13:38:38;;;;;;;7.10;1.98;;;;;;;;;;5056381;28;20056;-73
2021/06/17 13:41:05;;;;;;;2.45;1.95;;;;;;;;;;5056372;28;20155;-74
2021/06/17 13:43:30;;;;;;;4.93;2.20;;;;;;;;;;5055019;28;20037;-74
2021/06/17 13:45:56;;;;;;;5.38;2.22;;;;;;;;;;5054580;28;20052;-74
2021/06/17 13:48:22;;;;;;;6.68;2.00;;;;;;;;;;5055580;28;20071;-74
2021/06/17 13:50:47;;;;;;;2.92;1.92;;;;;;;;;;5056038;28;20033;-75
2021/06/17 13:53:13;;;;;;;4.60;2.05;;;;;;;;;;5056030;28;20021;-74
2021/06/17 13:55:40;;;;;;;6.30;1.77;;;;;;;;;;5055106;28;20044;-74
2021/06/17 13:58:07;;;;;;;4.35;2.10;;;;;;;;;;5055545;28;20044;-74
2021/06/17 14:00:34;;;;;;;8.48;2.17;;;;;;;;;;5056118;28;20029;-74
2021/06/17 14:03:00;;;;;;;4.55;2.60;;;;;;;;;;5056018;28;20037;-74
2021/06/17 14:05:26;;;;;;;3.13;2.30;;;;;;;;;;5055705;28;20041;-74
2021/06/17 14:07:52;;;;;;;7.47;2.35;;;;;;;;;;5055545;28;20112;-74
2021/06/17 14:10:20;;;;;;;6.07;2.10;;;;;;;;;;5056169;28;20063;-75
2021/06/17 14:12:46;;;;;;;9.73;4.97;;;;;;;;;;5055861;28;20782;-73
2021/06/17 14:15:13;;;;;;;5.68;2.83;;;;;;;;;;5055617;28;20048;-74
2021/06/17 14:17:39;;;;;;;6.38;2.38;;;;;;;;;;5055036;28;20033;-74
2021/06/17 14:20:07;;;;;;;3.58;2.28;;;;;;;;;;5055624;28;20508;-74
2021/06/17 14:22:33;;;;;;;8.32;3.47;;;;;;;;;;5054446;28;20048;-74
2021/06/17 14:24:59;;;;;;;5.97;2.35;;;;;;;;;;5055391;28;20411;-75
2021/06/17 14:27:25;;;;;;;7.38;1.95;;;;;;;;;;5055447;28;20025;-74
2021/06/17 14:29:51;;;;;;;3.40;1.98;;;;;;;;;;5055660;28;20052;-74
2021/06/17 14:32:18;;;;;;;5.43;2.20;;;;;;;;;;5055628;28;20041;-74
2021/06/17 14:34:43;;;;;;;9.52;2.00;;;;;;;;;;5054013;28;20040;-74
2021/06/17 14:37:09;;;;;;;7.32;2.55;;;;;;;;;;5055389;28;20039;-74
2021/06/17 14:39:34;;;;;;;6.32;2.47;;;;;;;;;;5055204;28;20517;-74
2021/06/17 14:42:01;;;;;;;5.53;2.20;;;;;;;;;;5055272;28;20102;-74
2021/06/17 14:44:28;;;;;;;8.77;2.13;;;;;;;;;;5055064;28;20049;-75
2021/06/17 14:46:53;;;;;;;4.72;2.28;;;;;;;;;;5055250;28;20482;-74
2021/06/17 14:49:19;;;;;;;4.35;2.00;;;;;;;;;;5055037;28;20033;-75
2021/06/17 14:51:44;;;;;;;7.40;2.30;;;;;;;;;;5055099;28;20129;-74